Time,TemperatureF,DewpointF,PressureIn,WindDirection,WindDirectionDegrees,WindSpeedMPH,WindSpeedGustMPH,Humidity,HourlyPrecipIn,Conditions,Clouds,dailyrainin,SoftwareType,DateUTC
2013-04-11 00:00:00,37.3,32.6,30.10,NE,55,0.0,6.0,83,0.00,,---,0.00,VWS V14.00,2013-04-11 04:00:00,
2013-04-11 00:05:00,37.4,33.0,30.10,NNE,29,3.0,7.0,84,0.00,,---,0.00,VWS V14.00,2013-04-11 04:05:00,
2013-04-11 00:10:00,37.4,33.0,30.11,NNE,28,5.0,7.0,84,0.00,,---,0.00,VWS V14.00,2013-04-11 04:10:00,
2013-04-11 00:15:00,37.4,33.0,30.11,NNE,24,2.0,10.0,84,0.00,,---,0.00,VWS V14.00,2013-04-11 04:15:00,
2013-04-11 00:20:00,37.5,33.1,30.10,NE,56,3.0,10.0,84,0.00,,---,0.00,VWS V14.00,2013-04-11 04:20:00,
2013-04-11 00:25:00,37.6,32.9,30.10,North,11,7.0,10.0,83,0.00,,---,0.00,VWS V14.00,2013-04-11 04:25:00,
2013-04-11 00:30:00,37.6,32.9,30.11,NNE,17,2.0,10.0,83,0.00,,---,0.00,VWS V14.00,2013-04-11 04:30:00,
2013-04-11 00:35:00,37.6,32.9,30.11,NNE,18,5.0,11.0,83,0.00,,---,0.00,VWS V14.00,2013-04-11 04:35:00,
2013-04-11 00:40:00,37.6,32.9,30.11,NNE,17,2.0,11.0,83,0.00,,---,0.00,VWS V14.00,2013-04-11 04:40:00,
2013-04-11 00:45:00,37.5,32.8,30.10,NNE,13,2.0,11.0,83,0.00,,---,0.00,VWS V14.00,2013-04-11 04:45:00,
2013-04-11 00:50:00,37.5,32.8,30.10,North,360,4.0,11.0,83,0.00,,---,0.00,VWS V14.00,2013-04-11 04:50:00,
2013-04-11 00:55:00,37.6,32.9,30.10,North,11,1.0,11.0,83,0.00,,---,0.00,VWS V14.00,2013-04-11 04:55:00,
2013-04-11 01:00:00,37.6,32.9,30.09,NE,47,6.0,7.0,83,0.00,,---,0.00,VWS V14.00,2013-04-11 05:00:00,
2013-04-11 01:05:00,37.5,32.5,30.08,NNE,15,3.0,9.0,82,0.00,,---,0.00,VWS V14.00,2013-04-11 05:05:00,
2013-04-11 01:10:00,37.6,32.9,30.09,NW,324,6.0,10.0,83,0.00,,---,0.00,VWS V14.00,2013-04-11 05:10:00,
2013-04-11 01:15:00,37.6,33.2,30.09,NE,45,7.0,12.0,84,0.00,,---,0.00,VWS V14.00,2013-04-11 05:15:00,
2013-04-11 01:20:00,37.6,33.2,30.09,NE,46,2.0,12.0,84,0.00,,---,0.00,VWS V14.00,2013-04-11 05:20:00,
2013-04-11 01:25:00,37.6,33.5,30.08,NE,35,3.0,12.0,85,0.00,,---,0.00,VWS V14.00,2013-04-11 05:25:00,
2013-04-11 01:30:00,37.5,33.4,30.07,NNE,25,6.0,10.0,85,0.00,,---,0.00,VWS V14.00,2013-04-11 05:30:00,
2013-04-11 01:35:00,37.4,33.3,30.08,North,355,1.0,11.0,85,0.00,,---,0.00,VWS V14.00,2013-04-11 05:35:00,
2013-04-11 01:40:00,37.4,33.3,30.08,NNW,344,5.0,11.0,85,0.00,,---,0.00,VWS V14.00,2013-04-11 05:40:00,
2013-04-11 01:45:00,37.4,33.3,30.07,North,349,4.0,14.0,85,0.00,,---,0.00,VWS V14.00,2013-04-11 05:45:00,
2013-04-11 01:50:00,37.3,33.2,30.06,ENE,57,5.0,14.0,85,0.00,,---,0.00,VWS V14.00,2013-04-11 05:50:00,
2013-04-11 01:55:00,37.3,33.2,30.06,North,360,5.0,14.0,85,0.00,,---,0.00,VWS V14.00,2013-04-11 05:55:00,
2013-04-11 02:00:00,37.3,33.2,30.05,North,360,6.0,11.0,85,0.00,,---,0.00,VWS V14.00,2013-04-11 06:00:00,
2013-04-11 02:05:00,37.3,32.9,30.05,North,360,7.0,12.0,84,0.00,,---,0.00,VWS V14.00,2013-04-11 06:05:00,
2013-04-11 02:10:00,37.3,32.9,30.06,WNW,302,3.0,13.0,84,0.00,,---,0.00,VWS V14.00,2013-04-11 06:10:00,
2013-04-11 02:15:00,37.2,32.8,30.05,ENE,74,3.0,13.0,84,0.00,,---,0.00,VWS V14.00,2013-04-11 06:15:00,
2013-04-11 02:20:00,37.2,33.1,30.05,ENE,67,8.0,13.0,85,0.00,,---,0.00,VWS V14.00,2013-04-11 06:20:00,
2013-04-11 02:25:00,37.2,33.1,30.05,NNW,346,8.0,13.0,85,0.00,,---,0.00,VWS V14.00,2013-04-11 06:25:00,
2013-04-11 02:30:00,37.2,33.1,30.06,North,355,5.0,10.0,85,0.00,,---,0.00,VWS V14.00,2013-04-11 06:30:00,
2013-04-11 02:35:00,37.2,33.1,30.06,NE,55,3.0,10.0,85,0.00,,---,0.00,VWS V14.00,2013-04-11 06:35:00,
2013-04-11 02:40:00,37.2,33.1,30.06,North,9,3.0,10.0,85,0.00,,---,0.00,VWS V14.00,2013-04-11 06:40:00,
2013-04-11 02:45:00,37.3,33.2,30.06,NE,36,6.0,12.0,85,0.00,,---,0.00,VWS V14.00,2013-04-11 06:45:00,
2013-04-11 02:50:00,37.3,33.2,30.07,ENE,64,4.0,12.0,85,0.00,,---,0.00,VWS V14.00,2013-04-11 06:50:00,
2013-04-11 02:55:00,37.4,33.3,30.06,ENE,67,3.0,14.0,85,0.00,,---,0.00,VWS V14.00,2013-04-11 06:55:00,
2013-04-11 03:00:00,37.4,33.3,30.06,ENE,65,5.0,9.0,85,0.00,,---,0.00,VWS V14.00,2013-04-11 07:00:00,
2013-04-11 03:05:00,37.4,33.3,30.08,ENE,76,5.0,9.0,85,0.00,,---,0.00,VWS V14.00,2013-04-11 07:05:00,
2013-04-11 03:10:00,37.4,33.6,30.08,NNW,346,3.0,9.0,86,0.00,,---,0.00,VWS V14.00,2013-04-11 07:10:00,
2013-04-11 03:15:00,37.4,33.3,30.08,East,101,7.0,9.0,85,0.00,,---,0.00,VWS V14.00,2013-04-11 07:15:00,
2013-04-11 03:20:00,37.4,33.6,30.07,NE,44,1.0,9.0,86,0.00,,---,0.00,VWS V14.00,2013-04-11 07:20:00,
2013-04-11 03:25:00,37.4,33.6,30.06,NE,36,2.0,9.0,86,0.00,,---,0.00,VWS V14.00,2013-04-11 07:25:00,
2013-04-11 03:30:00,37.2,33.4,30.06,ENE,65,3.0,8.0,86,0.01,,---,0.01,VWS V14.00,2013-04-11 07:30:00,
2013-04-11 03:35:00,37.1,33.3,30.05,East,94,5.0,11.0,86,0.01,,---,0.01,VWS V14.00,2013-04-11 07:35:00,
2013-04-11 03:40:00,37.0,33.2,30.05,ENE,59,1.0,11.0,86,0.02,,---,0.02,VWS V14.00,2013-04-11 07:40:00,
2013-04-11 03:45:00,37.0,33.2,30.04,East,94,2.0,11.0,86,0.02,,---,0.02,VWS V14.00,2013-04-11 07:45:00,
2013-04-11 03:50:00,36.8,33.0,30.04,SSE,149,1.0,11.0,86,0.03,,---,0.03,VWS V14.00,2013-04-11 07:50:00,
2013-04-11 03:55:00,36.8,33.0,30.03,SE,145,2.0,11.0,86,0.03,,---,0.03,VWS V14.00,2013-04-11 07:55:00,
2013-04-11 04:00:00,36.6,32.8,30.03,ENE,61,2.0,12.0,86,0.04,,---,0.04,VWS V14.00,2013-04-11 08:00:00,
2013-04-11 04:05:00,36.6,32.8,30.03,NNE,30,3.0,12.0,86,0.04,,---,0.04,VWS V14.00,2013-04-11 08:05:00,
2013-04-11 04:10:00,36.4,32.9,30.03,NE,49,1.0,12.0,87,0.06,,---,0.06,VWS V14.00,2013-04-11 08:10:00,
2013-04-11 04:15:00,36.3,32.8,30.02,NW,305,3.0,14.0,87,0.07,,---,0.07,VWS V14.00,2013-04-11 08:15:00,
2013-04-11 04:20:00,36.1,32.6,30.02,ENE,60,5.0,14.0,87,0.09,,---,0.09,VWS V14.00,2013-04-11 08:20:00,
2013-04-11 04:25:00,36.1,32.9,30.03,ENE,74,4.0,14.0,88,0.10,,---,0.10,VWS V14.00,2013-04-11 08:25:00,
2013-04-11 04:30:00,36.0,32.8,30.03,NE,55,3.0,11.0,88,0.12,,---,0.12,VWS V14.00,2013-04-11 08:30:00,
2013-04-11 04:35:00,35.9,32.7,30.03,North,360,4.0,11.0,88,0.14,,---,0.14,VWS V14.00,2013-04-11 08:35:00,
2013-04-11 04:40:00,35.8,32.6,30.04,North,351,4.0,11.0,88,0.17,,---,0.17,VWS V14.00,2013-04-11 08:40:00,
2013-04-11 04:45:00,35.7,32.5,30.04,NE,49,5.0,11.0,88,0.19,,---,0.19,VWS V14.00,2013-04-11 08:45:00,
2013-04-11 04:50:00,35.6,32.7,30.05,NW,322,3.0,11.0,89,0.21,,---,0.21,VWS V14.00,2013-04-11 08:50:00,
2013-04-11 04:55:00,35.5,32.3,30.06,NE,35,4.0,11.0,88,0.23,,---,0.23,VWS V14.00,2013-04-11 08:55:00,
2013-04-11 05:00:00,35.5,32.3,30.06,NE,47,2.0,9.0,88,0.21,,---,0.24,VWS V14.00,2013-04-11 09:00:00,
2013-04-11 05:05:00,35.3,32.1,30.06,East,93,4.0,11.0,88,0.24,,---,0.27,VWS V14.00,2013-04-11 09:05:00,
2013-04-11 05:11:00,35.2,32.0,30.06,East,100,8.0,12.0,88,0.26,,---,0.29,VWS V14.00,2013-04-11 09:11:00,
2013-04-11 05:16:00,35.1,31.9,30.06,East,93,4.0,13.0,88,0.27,,---,0.30,VWS V14.00,2013-04-11 09:16:00,
2013-04-11 05:21:00,35.0,31.8,30.06,NE,56,2.0,13.0,88,0.29,,---,0.32,VWS V14.00,2013-04-11 09:21:00,
2013-04-11 05:26:00,34.9,32.0,30.06,NE,46,2.0,13.0,89,0.31,,---,0.34,VWS V14.00,2013-04-11 09:26:00,
2013-04-11 05:30:00,34.9,32.0,30.07,East,80,4.0,13.0,89,0.31,,---,0.34,VWS V14.00,2013-04-11 09:30:00,
2013-04-11 05:31:00,34.8,31.9,30.07,NE,55,3.0,7.0,89,0.24,,---,0.35,VWS V14.00,2013-04-11 09:31:00,
2013-04-11 05:36:00,34.7,31.8,30.07,NE,36,4.0,9.0,89,0.25,,---,0.36,VWS V14.00,2013-04-11 09:36:00,
2013-04-11 05:41:00,34.7,31.8,30.07,East,97,5.0,11.0,89,0.26,,---,0.37,VWS V14.00,2013-04-11 09:41:00,
2013-04-11 05:46:00,34.6,31.7,30.07,ESE,110,5.0,11.0,89,0.27,,---,0.38,VWS V14.00,2013-04-11 09:46:00,
2013-04-11 05:51:00,34.5,31.6,30.06,ENE,67,3.0,11.0,89,0.28,,---,0.39,VWS V14.00,2013-04-11 09:51:00,
2013-04-11 05:56:00,34.5,31.9,30.06,NE,46,2.0,12.0,90,0.29,,---,0.40,VWS V14.00,2013-04-11 09:56:00,
2013-04-11 06:00:00,34.5,31.9,30.07,ESE,116,4.0,12.0,90,0.29,,---,0.40,VWS V14.00,2013-04-11 10:00:00,
2013-04-11 06:01:00,34.5,31.9,30.07,NNE,14,2.0,14.0,90,0.18,,---,0.41,VWS V14.00,2013-04-11 10:01:00,
2013-04-11 06:06:00,34.5,31.9,30.06,NE,52,7.0,14.0,90,0.18,,---,0.41,VWS V14.00,2013-04-11 10:06:00,
2013-04-11 06:11:00,34.4,31.5,30.06,ENE,77,5.0,14.0,89,0.19,,---,0.42,VWS V14.00,2013-04-11 10:11:00,
2013-04-11 06:16:00,34.4,31.5,30.06,East,88,10.0,14.0,89,0.20,,---,0.43,VWS V14.00,2013-04-11 10:16:00,
2013-04-11 06:26:00,34.4,31.8,30.06,SE,134,2.0,14.0,90,0.22,,---,0.45,VWS V14.00,2013-04-11 10:26:00,
2013-04-11 06:30:00,34.4,31.8,30.06,East,99,7.0,14.0,90,0.22,,---,0.45,VWS V14.00,2013-04-11 10:30:00,
2013-04-11 06:31:00,34.4,31.5,30.06,NE,35,6.0,14.0,89,0.11,,---,0.45,VWS V14.00,2013-04-11 10:31:00,
2013-04-11 06:36:00,34.4,31.8,30.06,North,9,4.0,14.0,90,0.12,,---,0.46,VWS V14.00,2013-04-11 10:36:00,
2013-04-11 06:41:00,34.3,31.7,30.06,NE,52,4.0,14.0,90,0.12,,---,0.46,VWS V14.00,2013-04-11 10:41:00,
2013-04-11 06:46:00,34.3,31.4,30.06,ENE,59,4.0,14.0,89,0.12,,---,0.46,VWS V14.00,2013-04-11 10:46:00,
2013-04-11 06:51:00,34.2,31.6,30.06,NE,46,5.0,14.0,90,0.13,,---,0.47,VWS V14.00,2013-04-11 10:51:00,
2013-04-11 06:56:00,34.1,31.5,30.05,East,81,5.0,15.0,90,0.13,,---,0.47,VWS V14.00,2013-04-11 10:56:00,
2013-04-11 07:00:00,34.1,31.2,30.05,ENE,64,5.0,15.0,89,0.13,,---,0.47,VWS V14.00,2013-04-11 11:00:00,
2013-04-11 07:01:00,34.0,31.1,30.04,SE,127,6.0,13.0,89,0.08,,---,0.48,VWS V14.00,2013-04-11 11:01:00,
2013-04-11 07:06:00,33.8,30.9,30.02,NE,52,7.0,19.0,89,0.08,,---,0.48,VWS V14.00,2013-04-11 11:06:00,
2013-04-11 07:11:00,33.6,30.7,29.98,ENE,60,12.0,22.0,89,0.09,,---,0.49,VWS V14.00,2013-04-11 11:11:00,
2013-04-11 07:16:00,33.5,30.9,29.99,ENE,62,13.0,22.0,90,0.10,,---,0.50,VWS V14.00,2013-04-11 11:16:00,
2013-04-11 07:21:00,33.4,30.8,29.94,East,100,16.0,23.0,90,0.10,,---,0.50,VWS V14.00,2013-04-11 11:21:00,
2013-04-11 07:26:00,33.3,30.7,29.94,ESE,117,26.0,32.0,90,0.11,,---,0.51,VWS V14.00,2013-04-11 11:26:00,
2013-04-11 07:30:00,33.3,30.7,29.96,ESE,107,8.0,32.0,90,0.11,,---,0.51,VWS V14.00,2013-04-11 11:30:00,
2013-04-11 07:31:00,33.4,30.8,29.99,East,85,12.0,18.0,90,0.06,,---,0.51,VWS V14.00,2013-04-11 11:31:00,
2013-04-11 07:36:00,33.5,30.6,30.01,ESE,108,16.0,19.0,89,0.06,,---,0.51,VWS V14.00,2013-04-11 11:36:00,
2013-04-11 07:41:00,33.5,30.6,30.01,ESE,103,15.0,19.0,89,0.06,,---,0.51,VWS V14.00,2013-04-11 11:41:00,
2013-04-11 07:46:00,33.6,30.7,30.03,East,88,5.0,19.0,89,0.06,,---,0.51,VWS V14.00,2013-04-11 11:46:00,
2013-04-11 07:52:00,33.7,30.8,30.06,East,84,5.0,19.0,89,0.06,,---,0.51,VWS V14.00,2013-04-11 11:52:00,
2013-04-11 07:57:00,33.8,30.6,30.08,ENE,65,7.0,19.0,88,0.06,,---,0.51,VWS V14.00,2013-04-11 11:57:00,
2013-04-11 08:00:00,33.9,30.7,30.09,East,90,6.0,19.0,88,0.06,,---,0.51,VWS V14.00,2013-04-11 12:00:00,
2013-04-11 08:02:00,33.9,30.7,30.10,NE,40,3.0,8.0,88,0.04,,---,0.51,VWS V14.00,2013-04-11 12:02:00,
2013-04-11 08:07:00,34.0,30.8,30.10,ENE,75,4.0,8.0,88,0.04,,---,0.51,VWS V14.00,2013-04-11 12:07:00,
2013-04-11 08:12:00,34.0,30.8,30.10,ENE,67,1.0,8.0,88,0.04,,---,0.51,VWS V14.00,2013-04-11 12:12:00,
2013-04-11 08:17:00,33.9,30.7,30.09,East,88,5.0,11.0,88,0.04,,---,0.51,VWS V14.00,2013-04-11 12:17:00,
2013-04-11 08:22:00,33.9,30.7,30.09,East,100,5.0,11.0,88,0.04,,---,0.51,VWS V14.00,2013-04-11 12:22:00,
2013-04-11 08:27:00,33.8,30.6,30.07,ENE,75,4.0,11.0,88,0.04,,---,0.51,VWS V14.00,2013-04-11 12:27:00,
2013-04-11 08:30:00,33.8,30.6,30.07,North,350,5.0,11.0,88,0.04,,---,0.51,VWS V14.00,2013-04-11 12:30:00,
2013-04-11 08:32:00,33.6,30.7,30.07,ENE,59,6.0,16.0,89,0.00,,---,0.51,VWS V14.00,2013-04-11 12:32:00,
2013-04-11 08:37:00,33.5,30.6,30.06,East,96,11.0,16.0,89,0.01,,---,0.52,VWS V14.00,2013-04-11 12:37:00,
2013-04-11 08:42:00,33.4,30.8,30.06,ENE,58,6.0,16.0,90,0.01,,---,0.52,VWS V14.00,2013-04-11 12:42:00,
2013-04-11 08:47:00,33.3,30.7,30.06,East,90,9.0,16.0,90,0.01,,---,0.52,VWS V14.00,2013-04-11 12:47:00,
2013-04-11 08:52:00,33.2,30.9,30.05,ENE,74,7.0,17.0,91,0.02,,---,0.53,VWS V14.00,2013-04-11 12:52:00,
2013-04-11 08:57:00,33.3,31.0,30.06,NE,43,8.0,17.0,91,0.02,,---,0.53,VWS V14.00,2013-04-11 12:57:00,
2013-04-11 09:00:00,33.3,31.0,30.06,ESE,109,5.0,17.0,91,0.02,,---,0.53,VWS V14.00,2013-04-11 13:00:00,
2013-04-11 09:02:00,33.3,31.0,30.08,North,11,5.0,11.0,91,0.02,,---,0.53,VWS V14.00,2013-04-11 13:02:00,
2013-04-11 09:07:00,33.4,31.1,30.09,NW,313,6.0,12.0,91,0.02,,---,0.53,VWS V14.00,2013-04-11 13:07:00,
2013-04-11 09:12:00,33.4,31.1,30.08,East,83,11.0,12.0,91,0.02,,---,0.53,VWS V14.00,2013-04-11 13:12:00,
2013-04-11 09:17:00,33.4,31.1,30.07,ENE,68,5.0,13.0,91,0.02,,---,0.53,VWS V14.00,2013-04-11 13:17:00,
2013-04-11 09:22:00,33.5,31.2,30.07,NE,44,3.0,13.0,91,0.02,,---,0.53,VWS V14.00,2013-04-11 13:22:00,
2013-04-11 09:27:00,33.5,31.2,30.07,East,99,7.0,16.0,91,0.02,,---,0.53,VWS V14.00,2013-04-11 13:27:00,
2013-04-11 09:30:00,33.5,31.2,30.07,ESE,102,6.0,16.0,91,0.02,,---,0.53,VWS V14.00,2013-04-11 13:30:00,
2013-04-11 09:32:00,33.6,31.3,30.07,East,84,3.0,13.0,91,0.02,,---,0.53,VWS V14.00,2013-04-11 13:32:00,
2013-04-11 09:37:00,33.7,31.4,30.07,East,90,6.0,13.0,91,0.02,,---,0.53,VWS V14.00,2013-04-11 13:37:00,
2013-04-11 09:42:00,33.8,31.5,30.06,NE,42,1.0,13.0,91,0.02,,---,0.53,VWS V14.00,2013-04-11 13:42:00,
2013-04-11 09:47:00,33.8,31.5,30.05,East,92,11.0,15.0,91,0.02,,---,0.53,VWS V14.00,2013-04-11 13:47:00,
2013-04-11 09:52:00,33.9,31.6,30.06,East,98,4.0,16.0,91,0.02,,---,0.53,VWS V14.00,2013-04-11 13:52:00,
2013-04-11 09:57:00,34.0,31.6,30.06,ESE,103,7.0,8.0,91,0.00,,---,0.53,VWS V14.00,2013-04-11 13:57:00,
2013-04-11 10:00:00,34.0,31.6,30.06,ENE,63,6.0,16.0,91,0.02,,---,0.53,VWS V14.00,2013-04-11 14:00:00,
2013-04-11 10:02:00,33.9,31.6,30.03,ENE,67,6.0,14.0,91,0.00,,---,0.53,VWS V14.00,2013-04-11 14:02:00,
2013-04-11 10:07:00,33.9,31.6,30.05,ESE,109,11.0,14.0,91,0.00,,---,0.53,VWS V14.00,2013-04-11 14:07:00,
2013-04-11 10:13:00,33.9,31.6,30.08,East,94,6.0,14.0,91,0.00,,---,0.53,VWS V14.00,2013-04-11 14:13:00,
2013-04-11 10:18:00,34.1,31.8,30.08,West,262,1.0,14.0,91,0.00,,---,0.53,VWS V14.00,2013-04-11 14:18:00,
2013-04-11 10:23:00,34.1,31.5,30.06,East,97,7.0,14.0,90,0.00,,---,0.53,VWS V14.00,2013-04-11 14:23:00,
2013-04-11 10:28:00,34.1,31.5,30.08,East,92,11.0,13.0,90,0.00,,---,0.53,VWS V14.00,2013-04-11 14:28:00,
2013-04-11 10:30:00,34.1,31.5,30.08,East,101,13.0,16.0,90,0.00,,---,0.53,VWS V14.00,2013-04-11 14:30:00,
2013-04-11 10:33:00,34.3,32.0,30.08,East,80,5.0,13.0,91,0.00,,---,0.53,VWS V14.00,2013-04-11 14:33:00,
2013-04-11 10:38:00,34.3,32.0,30.07,ESE,110,2.0,13.0,91,0.00,,---,0.53,VWS V14.00,2013-04-11 14:38:00,
2013-04-11 10:43:00,34.3,32.0,30.06,ENE,63,12.0,13.0,91,0.00,,---,0.53,VWS V14.00,2013-04-11 14:43:00,
2013-04-11 10:48:00,34.2,31.6,30.06,ENE,77,5.0,13.0,90,0.00,,---,0.53,VWS V14.00,2013-04-11 14:48:00,
2013-04-11 10:53:00,34.2,31.6,30.06,East,84,11.0,15.0,90,0.00,,---,0.53,VWS V14.00,2013-04-11 14:53:00,
2013-04-11 10:58:00,34.0,31.6,30.07,ESE,105,2.0,5.0,91,0.00,,---,0.53,VWS V14.00,2013-04-11 14:58:00,
2013-04-11 11:00:00,34.0,31.6,30.07,NE,37,3.0,15.0,91,0.00,,---,0.53,VWS V14.00,2013-04-11 15:00:00,
2013-04-11 11:03:00,33.9,31.6,30.06,East,82,4.0,11.0,91,0.00,,---,0.53,VWS V14.00,2013-04-11 15:03:00,
2013-04-11 11:08:00,33.8,31.5,30.06,ESE,115,2.0,14.0,91,0.00,,---,0.53,VWS V14.00,2013-04-11 15:08:00,
2013-04-11 11:13:00,33.7,31.4,30.04,NNE,30,5.0,14.0,91,0.01,,---,0.54,VWS V14.00,2013-04-11 15:13:00,
2013-04-11 11:18:00,33.7,31.6,30.04,East,83,5.0,14.0,92,0.01,,---,0.54,VWS V14.00,2013-04-11 15:18:00,
2013-04-11 11:23:00,33.7,31.6,30.05,NNE,31,7.0,14.0,92,0.01,,---,0.54,VWS V14.00,2013-04-11 15:23:00,
2013-04-11 11:28:00,33.6,31.5,30.05,ENE,61,4.0,8.0,92,0.01,,---,0.54,VWS V14.00,2013-04-11 15:28:00,
2013-04-11 11:30:00,33.6,31.5,30.05,ENE,61,3.0,14.0,92,0.01,,---,0.54,VWS V14.00,2013-04-11 15:30:00,
2013-04-11 11:33:00,33.6,31.5,30.05,East,92,7.0,20.0,92,0.02,,---,0.55,VWS V14.00,2013-04-11 15:33:00,
2013-04-11 11:38:00,33.5,31.4,30.04,NE,55,4.0,20.0,92,0.02,,---,0.55,VWS V14.00,2013-04-11 15:38:00,
2013-04-11 11:48:00,33.5,31.4,30.05,ENE,78,3.0,20.0,92,0.02,,---,0.55,VWS V14.00,2013-04-11 15:48:00,
2013-04-11 11:53:00,33.5,31.4,30.05,East,87,5.0,20.0,92,0.02,,---,0.55,VWS V14.00,2013-04-11 15:53:00,
2013-04-11 11:58:00,33.5,31.4,30.05,ESE,123,8.0,11.0,92,0.02,,---,0.55,VWS V14.00,2013-04-11 15:58:00,
2013-04-11 12:00:00,33.5,31.4,30.05,ENE,66,6.0,20.0,92,0.02,,---,0.55,VWS V14.00,2013-04-11 16:00:00,
2013-04-11 12:03:00,33.4,31.3,30.05,North,355,3.0,14.0,92,0.02,,---,0.55,VWS V14.00,2013-04-11 16:03:00,
2013-04-11 12:08:00,33.4,31.3,30.04,NE,44,6.0,14.0,92,0.02,,---,0.55,VWS V14.00,2013-04-11 16:08:00,
2013-04-11 12:13:00,33.2,31.1,30.03,ENE,78,5.0,18.0,92,0.02,,---,0.55,VWS V14.00,2013-04-11 16:13:00,
2013-04-11 12:19:00,33.3,31.2,30.04,East,96,8.0,18.0,92,0.02,,---,0.55,VWS V14.00,2013-04-11 16:19:00,
2013-04-11 12:24:00,33.3,31.2,30.04,East,86,13.0,18.0,92,0.03,,---,0.56,VWS V14.00,2013-04-11 16:24:00,
2013-04-11 12:29:00,33.3,31.2,30.04,East,89,7.0,16.0,92,0.02,,---,0.56,VWS V14.00,2013-04-11 16:29:00,
2013-04-11 12:30:00,33.4,31.3,30.04,ENE,66,4.0,18.0,92,0.03,,---,0.56,VWS V14.00,2013-04-11 16:30:00,
2013-04-11 12:34:00,33.4,31.3,30.04,East,91,12.0,16.0,92,0.02,,---,0.56,VWS V14.00,2013-04-11 16:34:00,
2013-04-11 12:39:00,33.4,31.3,30.03,East,99,8.0,16.0,92,0.02,,---,0.56,VWS V14.00,2013-04-11 16:39:00,
2013-04-11 12:44:00,33.5,31.4,30.03,ESE,109,12.0,16.0,92,0.02,,---,0.56,VWS V14.00,2013-04-11 16:44:00,
2013-04-11 12:49:00,33.6,31.5,30.02,East,92,7.0,16.0,92,0.03,,---,0.57,VWS V14.00,2013-04-11 16:49:00,
2013-04-11 12:54:00,33.5,31.4,30.02,East,80,5.0,16.0,92,0.04,,---,0.58,VWS V14.00,2013-04-11 16:54:00,
2013-04-11 12:59:00,33.5,31.4,30.02,ENE,77,5.0,12.0,92,0.03,,---,0.58,VWS V14.00,2013-04-11 16:59:00,
2013-04-11 13:00:00,33.5,31.4,30.02,East,96,14.0,16.0,92,0.04,,---,0.58,VWS V14.00,2013-04-11 17:00:00,
2013-04-11 13:04:00,33.6,31.5,30.01,East,93,11.0,12.0,92,0.03,,---,0.58,VWS V14.00,2013-04-11 17:04:00,
2013-04-11 13:09:00,33.7,31.9,30.01,ENE,78,6.0,13.0,93,0.04,,---,0.59,VWS V14.00,2013-04-11 17:09:00,
2013-04-11 13:14:00,33.7,31.9,30.01,NW,311,7.0,16.0,93,0.04,,---,0.59,VWS V14.00,2013-04-11 17:14:00,
2013-04-11 13:19:00,33.6,31.8,30.01,ENE,76,6.0,19.0,93,0.04,,---,0.59,VWS V14.00,2013-04-11 17:19:00,
2013-04-11 13:24:00,33.7,31.9,30.01,East,84,5.0,19.0,93,0.05,,---,0.60,VWS V14.00,2013-04-11 17:24:00,
2013-04-11 13:29:00,33.7,31.9,30.00,East,83,6.0,11.0,93,0.04,,---,0.60,VWS V14.00,2013-04-11 17:29:00,
2013-04-11 13:30:00,33.7,31.9,30.00,East,93,6.0,19.0,93,0.05,,---,0.60,VWS V14.00,2013-04-11 17:30:00,
2013-04-11 13:34:00,33.7,31.9,30.00,NE,54,7.0,16.0,93,0.05,,---,0.61,VWS V14.00,2013-04-11 17:34:00,
2013-04-11 13:39:00,33.7,31.9,30.00,ENE,76,8.0,16.0,93,0.06,,---,0.62,VWS V14.00,2013-04-11 17:39:00,
2013-04-11 13:44:00,33.8,32.0,30.00,East,86,8.0,20.0,93,0.06,,---,0.62,VWS V14.00,2013-04-11 17:44:00,
2013-04-11 13:49:00,33.8,31.7,30.00,East,89,6.0,20.0,92,0.06,,---,0.62,VWS V14.00,2013-04-11 17:49:00,
2013-04-11 13:54:00,33.9,31.8,30.00,East,81,7.0,20.0,92,0.06,,---,0.62,VWS V14.00,2013-04-11 17:54:00,
2013-04-11 13:59:00,33.8,31.7,30.01,East,83,5.0,16.0,92,0.04,,---,0.62,VWS V14.00,2013-04-11 17:59:00,
2013-04-11 14:00:00,33.9,32.1,30.00,East,94,14.0,20.0,93,0.06,,---,0.62,VWS V14.00,2013-04-11 18:00:00,
2013-04-11 14:04:00,33.8,31.7,30.00,SE,125,9.0,16.0,92,0.04,,---,0.62,VWS V14.00,2013-04-11 18:04:00,
2013-04-11 14:09:00,33.8,31.7,30.00,East,97,11.0,16.0,92,0.04,,---,0.62,VWS V14.00,2013-04-11 18:09:00,
2013-04-11 14:14:00,33.9,31.8,30.00,East,94,12.0,16.0,92,0.04,,---,0.62,VWS V14.00,2013-04-11 18:14:00,
2013-04-11 14:19:00,33.8,31.7,29.99,ENE,78,7.0,16.0,92,0.04,,---,0.62,VWS V14.00,2013-04-11 18:19:00,
2013-04-11 14:24:00,33.8,31.7,29.99,East,90,19.0,19.0,92,0.04,,---,0.62,VWS V14.00,2013-04-11 18:24:00,
2013-04-11 14:29:00,33.9,31.8,29.99,East,86,6.0,11.0,92,0.03,,---,0.63,VWS V14.00,2013-04-11 18:29:00,
2013-04-11 14:30:00,33.8,31.7,29.99,ENE,74,5.0,19.0,92,0.05,,---,0.63,VWS V14.00,2013-04-11 18:30:00,
2013-04-11 14:34:00,33.9,31.8,29.99,East,80,6.0,13.0,92,0.04,,---,0.64,VWS V14.00,2013-04-11 18:34:00,
2013-04-11 14:39:00,33.8,31.7,29.99,ESE,110,14.0,15.0,92,0.05,,---,0.65,VWS V14.00,2013-04-11 18:39:00,
2013-04-11 14:44:00,33.8,31.7,29.98,ENE,76,6.0,16.0,92,0.06,,---,0.66,VWS V14.00,2013-04-11 18:44:00,
2013-04-11 14:49:00,33.8,31.7,29.98,East,94,6.0,16.0,92,0.07,,---,0.67,VWS V14.00,2013-04-11 18:49:00,
2013-04-11 14:54:00,33.8,32.0,29.98,ESE,105,16.0,16.0,93,0.09,,---,0.69,VWS V14.00,2013-04-11 18:54:00,
2013-04-11 14:59:00,33.7,31.9,29.97,East,101,6.0,13.0,93,0.10,,---,0.72,VWS V14.00,2013-04-11 18:59:00,
2013-04-11 15:00:00,33.7,31.9,29.98,East,90,7.0,19.0,93,0.11,,---,0.71,VWS V14.00,2013-04-11 19:00:00,
2013-04-11 15:04:00,33.7,31.9,29.97,East,94,5.0,16.0,93,0.14,,---,0.76,VWS V14.00,2013-04-11 19:04:00,
2013-04-11 15:09:00,33.5,31.7,29.97,North,10,3.0,16.0,93,0.17,,---,0.79,VWS V14.00,2013-04-11 19:09:00,
2013-04-11 15:14:00,33.5,31.7,29.97,NE,53,3.0,16.0,93,0.18,,---,0.80,VWS V14.00,2013-04-11 19:14:00,
2013-04-11 15:19:00,33.5,31.7,29.96,ENE,64,4.0,20.0,93,0.18,,---,0.80,VWS V14.00,2013-04-11 19:19:00,
2013-04-11 15:24:00,33.5,31.7,29.97,East,86,7.0,20.0,93,0.18,,---,0.80,VWS V14.00,2013-04-11 19:24:00,
2013-04-11 15:29:00,33.6,31.8,29.98,ENE,57,4.0,9.0,93,0.17,,---,0.80,VWS V14.00,2013-04-11 19:29:00,
2013-04-11 15:30:00,33.5,31.7,29.97,ENE,61,3.0,21.0,93,0.18,,---,0.80,VWS V14.00,2013-04-11 19:30:00,
2013-04-11 15:34:00,33.6,31.8,29.97,ENE,71,5.0,15.0,93,0.18,,---,0.81,VWS V14.00,2013-04-11 19:34:00,
2013-04-11 15:39:00,33.7,31.9,29.96,East,90,9.0,21.0,93,0.18,,---,0.81,VWS V14.00,2013-04-11 19:39:00,
2013-04-11 15:44:00,33.6,31.8,29.96,East,98,1.0,21.0,93,0.18,,---,0.81,VWS V14.00,2013-04-11 19:44:00,
2013-04-11 15:49:00,33.7,31.9,29.96,ENE,59,5.0,21.0,93,0.19,,---,0.82,VWS V14.00,2013-04-11 19:49:00,
2013-04-11 15:54:00,33.7,31.9,29.95,ESE,109,5.0,21.0,93,0.19,,---,0.82,VWS V14.00,2013-04-11 19:54:00,
2013-04-11 15:59:00,33.6,31.8,29.95,East,98,2.0,13.0,93,0.12,,---,0.83,VWS V14.00,2013-04-11 19:59:00,
2013-04-11 16:00:00,33.6,31.8,29.95,ESE,118,12.0,21.0,93,0.20,,---,0.83,VWS V14.00,2013-04-11 20:00:00,
2013-04-11 16:04:00,33.5,31.7,29.95,East,94,7.0,13.0,93,0.12,,---,0.83,VWS V14.00,2013-04-11 20:04:00,
2013-04-11 16:09:00,33.4,31.6,29.95,East,95,7.0,13.0,93,0.12,,---,0.83,VWS V14.00,2013-04-11 20:09:00,
2013-04-11 16:14:00,33.4,31.6,29.96,ESE,119,7.0,14.0,93,0.12,,---,0.83,VWS V14.00,2013-04-11 20:14:00,
2013-04-11 16:20:00,33.4,31.6,29.95,ESE,107,7.0,14.0,93,0.12,,---,0.83,VWS V14.00,2013-04-11 20:20:00,
2013-04-11 16:25:00,33.5,31.7,29.95,ESE,107,13.0,14.0,93,0.13,,---,0.84,VWS V14.00,2013-04-11 20:25:00,
2013-04-11 16:30:00,33.5,31.7,29.94,ENE,70,8.0,14.0,93,0.04,,---,0.84,VWS V14.00,2013-04-11 20:30:00,
2013-04-11 16:35:00,33.5,31.7,29.94,East,100,8.0,14.0,93,0.04,,---,0.84,VWS V14.00,2013-04-11 20:35:00,
2013-04-11 16:40:00,33.5,31.7,29.94,East,82,8.0,14.0,93,0.04,,---,0.84,VWS V14.00,2013-04-11 20:40:00,
2013-04-11 16:45:00,33.5,31.7,29.94,East,93,5.0,14.0,93,0.05,,---,0.85,VWS V14.00,2013-04-11 20:45:00,
2013-04-11 16:50:00,33.4,31.6,29.93,East,88,4.0,14.0,93,0.05,,---,0.85,VWS V14.00,2013-04-11 20:50:00,
2013-04-11 16:55:00,33.4,31.6,29.94,East,95,9.0,14.0,93,0.05,,---,0.85,VWS V14.00,2013-04-11 20:55:00,
2013-04-11 17:00:00,33.4,31.6,29.93,ENE,71,2.0,10.0,93,0.03,,---,0.86,VWS V14.00,2013-04-11 21:00:00,
2013-04-11 17:05:00,33.4,31.9,29.93,ENE,75,4.0,10.0,94,0.03,,---,0.86,VWS V14.00,2013-04-11 21:05:00,
2013-04-11 17:10:00,33.4,31.9,29.93,NE,40,5.0,18.0,94,0.03,,---,0.86,VWS V14.00,2013-04-11 21:10:00,
2013-04-11 17:15:00,33.4,31.9,29.93,NNE,23,5.0,18.0,94,0.04,,---,0.87,VWS V14.00,2013-04-11 21:15:00,
2013-04-11 17:20:00,33.4,31.9,29.92,NE,49,10.0,18.0,94,0.04,,---,0.87,VWS V14.00,2013-04-11 21:20:00,
2013-04-11 17:27:00,33.4,31.9,29.92,ENE,78,5.0,18.0,94,0.04,,---,0.87,VWS V14.00,2013-04-11 21:27:00,
2013-04-11 17:30:00,33.4,31.9,29.92,ENE,78,5.0,18.0,94,0.04,,---,0.87,VWS V14.00,2013-04-11 21:30:00,
2013-04-11 17:35:00,33.4,31.9,29.91,ENE,69,4.0,14.0,94,0.03,,---,0.87,VWS V14.00,2013-04-11 21:35:00,
2013-04-11 17:40:00,33.4,31.9,29.91,ESE,110,7.0,14.0,94,0.03,,---,0.87,VWS V14.00,2013-04-11 21:40:00,
2013-04-11 17:45:00,33.4,31.6,29.91,West,261,4.0,20.0,93,0.04,,---,0.88,VWS V14.00,2013-04-11 21:45:00,
2013-04-11 17:50:00,33.5,31.7,29.91,East,95,7.0,20.0,93,0.04,,---,0.88,VWS V14.00,2013-04-11 21:50:00,
2013-04-11 17:55:00,33.5,31.7,29.91,East,80,4.0,20.0,93,0.04,,---,0.88,VWS V14.00,2013-04-11 21:55:00,
2013-04-11 18:00:00,33.5,32.0,29.92,ENE,78,3.0,11.0,94,0.03,,---,0.89,VWS V14.00,2013-04-11 22:00:00,
2013-04-11 18:05:00,33.5,32.0,29.92,ENE,76,8.0,14.0,94,0.03,,---,0.89,VWS V14.00,2013-04-11 22:05:00,
2013-04-11 18:10:00,33.5,32.0,29.93,ENE,61,6.0,14.0,94,0.04,,---,0.90,VWS V14.00,2013-04-11 22:10:00,
2013-04-11 18:15:00,33.6,32.1,29.93,NNE,21,7.0,14.0,94,0.04,,---,0.90,VWS V14.00,2013-04-11 22:15:00,
2013-04-11 18:20:00,33.7,32.2,29.93,ENE,78,3.0,14.0,94,0.05,,---,0.91,VWS V14.00,2013-04-11 22:20:00,
2013-04-11 18:25:00,33.7,32.2,29.92,East,91,5.0,17.0,94,0.05,,---,0.91,VWS V14.00,2013-04-11 22:25:00,
2013-04-11 18:30:00,33.7,32.2,29.92,ENE,63,4.0,11.0,94,0.04,,---,0.91,VWS V14.00,2013-04-11 22:30:00,
2013-04-11 18:35:00,33.8,32.3,29.91,ENE,77,3.0,16.0,94,0.05,,---,0.92,VWS V14.00,2013-04-11 22:35:00,
2013-04-11 18:40:00,33.7,32.2,29.91,NE,49,6.0,16.0,94,0.05,,---,0.92,VWS V14.00,2013-04-11 22:40:00,
2013-04-11 18:45:00,33.7,32.2,29.91,ESE,103,7.0,16.0,94,0.06,,---,0.93,VWS V14.00,2013-04-11 22:45:00,
2013-04-11 18:50:00,33.7,32.2,29.92,East,94,7.0,16.0,94,0.09,,---,0.96,VWS V14.00,2013-04-11 22:50:00,
2013-04-11 18:55:00,33.8,32.3,29.92,East,100,5.0,16.0,94,0.10,,---,0.97,VWS V14.00,2013-04-11 22:55:00,
2013-04-11 19:00:00,33.8,32.3,29.92,NE,42,3.0,9.0,94,0.10,,---,0.98,VWS V14.00,2013-04-11 23:00:00,
2013-04-11 19:05:00,33.8,32.3,29.92,ENE,67,4.0,12.0,94,0.11,,---,0.99,VWS V14.00,2013-04-11 23:05:00,
2013-04-11 19:10:00,33.9,32.4,29.92,SE,126,6.0,13.0,94,0.12,,---,1.00,VWS V14.00,2013-04-11 23:10:00,
2013-04-11 19:15:00,33.9,32.4,29.92,NE,55,4.0,14.0,94,0.12,,---,1.00,VWS V14.00,2013-04-11 23:15:00,
2013-04-11 19:20:00,34.0,32.5,29.92,ENE,62,5.0,14.0,94,0.12,,---,1.00,VWS V14.00,2013-04-11 23:20:00,
2013-04-11 19:25:00,34.0,32.5,29.91,ENE,59,6.0,14.0,94,0.13,,---,1.01,VWS V14.00,2013-04-11 23:25:00,
2013-04-11 19:30:00,34.0,32.5,29.91,ENE,76,3.0,14.0,94,0.11,,---,1.02,VWS V14.00,2013-04-11 23:30:00,
2013-04-11 19:35:00,34.0,32.5,29.91,NE,49,2.0,14.0,94,0.11,,---,1.02,VWS V14.00,2013-04-11 23:35:00,
2013-04-11 19:40:00,34.0,32.5,29.90,ENE,60,4.0,14.0,94,0.12,,---,1.03,VWS V14.00,2013-04-11 23:40:00,
2013-04-11 19:45:00,34.0,32.5,29.90,ENE,70,5.0,14.0,94,0.13,,---,1.04,VWS V14.00,2013-04-11 23:45:00,
2013-04-11 19:51:00,34.0,32.5,29.90,East,94,7.0,14.0,94,0.14,,---,1.05,VWS V14.00,2013-04-11 23:51:00,
2013-04-11 19:56:00,34.1,32.6,29.90,East,92,6.0,14.0,94,0.14,,---,1.05,VWS V14.00,2013-04-11 23:56:00,
2013-04-11 20:00:00,34.1,32.6,29.90,East,96,8.0,14.0,94,0.14,,---,1.05,VWS V14.00,2013-04-12 00:00:00,
2013-04-11 20:01:00,34.1,32.6,29.89,South,188,7.0,13.0,94,0.09,,---,1.06,VWS V14.00,2013-04-12 00:01:00,
2013-04-11 20:06:00,34.1,32.6,29.89,East,89,4.0,13.0,94,0.09,,---,1.06,VWS V14.00,2013-04-12 00:06:00,
2013-04-11 20:11:00,34.1,32.6,29.89,ENE,58,2.0,15.0,94,0.09,,---,1.06,VWS V14.00,2013-04-12 00:11:00,
2013-04-11 20:16:00,34.1,32.6,29.89,East,84,4.0,17.0,94,0.09,,---,1.06,VWS V14.00,2013-04-12 00:16:00,
2013-04-11 20:21:00,34.1,32.6,29.89,ENE,72,4.0,18.0,94,0.09,,---,1.06,VWS V14.00,2013-04-12 00:21:00,
2013-04-11 20:26:00,34.1,32.6,29.89,ENE,74,4.0,18.0,94,0.09,,---,1.06,VWS V14.00,2013-04-12 00:26:00,
2013-04-11 20:30:00,34.1,32.6,29.88,ENE,72,5.0,18.0,94,0.09,,---,1.06,VWS V14.00,2013-04-12 00:30:00,
2013-04-11 20:31:00,34.0,32.5,29.88,East,88,8.0,16.0,94,0.06,,---,1.07,VWS V14.00,2013-04-12 00:31:00,
2013-04-11 20:36:00,34.0,32.5,29.88,ENE,57,6.0,16.0,94,0.06,,---,1.07,VWS V14.00,2013-04-12 00:36:00,
2013-04-11 20:41:00,33.9,32.4,29.89,NE,54,7.0,16.0,94,0.07,,---,1.08,VWS V14.00,2013-04-12 00:41:00,
2013-04-11 20:46:00,33.9,32.4,29.88,ESE,122,7.0,16.0,94,0.08,,---,1.09,VWS V14.00,2013-04-12 00:46:00,
2013-04-11 20:51:00,33.9,32.4,29.88,East,92,8.0,16.0,94,0.09,,---,1.10,VWS V14.00,2013-04-12 00:51:00,
2013-04-11 20:56:00,33.9,32.4,29.88,East,84,3.0,16.0,94,0.09,,---,1.10,VWS V14.00,2013-04-12 00:56:00,
2013-04-11 21:00:00,33.9,32.4,29.87,East,88,5.0,16.0,94,0.09,,---,1.10,VWS V14.00,2013-04-12 01:00:00,
2013-04-11 21:01:00,33.8,32.3,29.88,SE,142,7.0,15.0,94,0.05,,---,1.10,VWS V14.00,2013-04-12 01:01:00,
2013-04-11 21:06:00,33.8,32.3,29.87,ESE,102,11.0,19.0,94,0.06,,---,1.11,VWS V14.00,2013-04-12 01:06:00,
2013-04-11 21:11:00,33.9,32.4,29.87,East,91,11.0,19.0,94,0.07,,---,1.12,VWS V14.00,2013-04-12 01:11:00,
2013-04-11 21:16:00,33.9,32.4,29.86,ENE,63,8.0,19.0,94,0.07,,---,1.12,VWS V14.00,2013-04-12 01:16:00,
2013-04-11 21:26:00,33.8,32.3,29.86,East,97,8.0,19.0,94,0.08,,---,1.13,VWS V14.00,2013-04-12 01:26:00,
2013-04-11 21:30:00,33.8,32.3,29.86,East,90,14.0,19.0,94,0.08,,---,1.13,VWS V14.00,2013-04-12 01:30:00,
2013-04-11 21:31:00,33.7,32.2,29.85,ESE,105,6.0,14.0,94,0.07,,---,1.13,VWS V14.00,2013-04-12 01:31:00,
2013-04-11 21:36:00,33.8,32.3,29.85,East,96,4.0,14.0,94,0.07,,---,1.13,VWS V14.00,2013-04-12 01:36:00,
2013-04-11 21:51:00,33.8,32.3,29.84,NNW,342,5.0,21.0,94,0.08,,---,1.14,VWS V14.00,2013-04-12 01:51:00,
2013-04-11 21:57:00,33.7,32.2,29.84,East,97,9.0,21.0,94,0.09,,---,1.15,VWS V14.00,2013-04-12 01:57:00,
2013-04-11 22:00:00,33.7,32.2,29.84,ENE,74,3.0,21.0,94,0.09,,---,1.15,VWS V14.00,2013-04-12 02:00:00,
2013-04-11 22:02:00,33.7,32.2,29.83,ESE,103,12.0,18.0,94,0.05,,---,1.15,VWS V14.00,2013-04-12 02:02:00,
2013-04-11 22:07:00,33.7,32.2,29.83,NE,40,2.0,18.0,94,0.05,,---,1.15,VWS V14.00,2013-04-12 02:07:00,
2013-04-11 22:12:00,33.7,32.2,29.83,NE,39,5.0,18.0,94,0.06,,---,1.16,VWS V14.00,2013-04-12 02:12:00,
2013-04-11 22:17:00,33.7,31.9,29.82,ESE,121,6.0,18.0,93,0.06,,---,1.16,VWS V14.00,2013-04-12 02:17:00,
2013-04-11 22:22:00,33.7,31.9,29.81,ESE,118,9.0,18.0,93,0.07,,---,1.17,VWS V14.00,2013-04-12 02:22:00,
2013-04-11 22:27:00,33.7,31.9,29.80,East,84,6.0,20.0,93,0.07,,---,1.17,VWS V14.00,2013-04-12 02:27:00,
2013-04-11 22:30:00,33.7,31.9,29.80,ESE,111,7.0,20.0,93,0.07,,---,1.17,VWS V14.00,2013-04-12 02:30:00,
2013-04-11 22:32:00,33.7,31.9,29.80,ESE,111,6.0,15.0,93,0.04,,---,1.17,VWS V14.00,2013-04-12 02:32:00,
2013-04-11 22:37:00,33.7,31.9,29.80,ESE,103,7.0,16.0,93,0.05,,---,1.18,VWS V14.00,2013-04-12 02:37:00,
2013-04-11 22:42:00,33.7,31.9,29.80,ESE,111,5.0,16.0,93,0.05,,---,1.18,VWS V14.00,2013-04-12 02:42:00,
2013-04-11 22:47:00,33.7,31.9,29.80,NE,52,5.0,16.0,93,0.05,,---,1.18,VWS V14.00,2013-04-12 02:47:00,
2013-04-11 22:52:00,33.7,31.9,29.81,ENE,63,6.0,16.0,93,0.05,,---,1.18,VWS V14.00,2013-04-12 02:52:00,
2013-04-11 22:57:00,33.7,31.9,29.81,North,355,4.0,16.0,93,0.05,,---,1.18,VWS V14.00,2013-04-12 02:57:00,
2013-04-11 23:00:00,33.7,31.9,29.81,NNE,29,6.0,16.0,93,0.05,,---,1.18,VWS V14.00,2013-04-12 03:00:00,
2013-04-11 23:02:00,33.7,31.9,29.81,ENE,74,3.0,11.0,93,0.03,,---,1.18,VWS V14.00,2013-04-12 03:02:00,
2013-04-11 23:07:00,33.8,32.0,29.80,ESE,117,7.0,12.0,93,0.03,,---,1.18,VWS V14.00,2013-04-12 03:07:00,
2013-04-11 23:12:00,33.7,31.9,29.80,ESE,102,8.0,18.0,93,0.03,,---,1.18,VWS V14.00,2013-04-12 03:12:00,
2013-04-11 23:17:00,33.8,32.0,29.79,East,92,6.0,18.0,93,0.03,,---,1.18,VWS V14.00,2013-04-12 03:17:00,
2013-04-11 23:22:00,33.7,31.6,29.78,East,90,7.0,20.0,92,0.04,,---,1.19,VWS V14.00,2013-04-12 03:22:00,
2013-04-11 23:27:00,33.7,31.9,29.79,NE,42,4.0,20.0,93,0.04,,---,1.19,VWS V14.00,2013-04-12 03:27:00,
2013-04-11 23:30:00,33.7,31.9,29.79,NE,40,5.0,20.0,93,0.04,,---,1.19,VWS V14.00,2013-04-12 03:30:00,
2013-04-11 23:32:00,33.7,31.9,29.79,ENE,57,7.0,13.0,93,0.03,,---,1.20,VWS V14.00,2013-04-12 03:32:00,
2013-04-11 23:37:00,33.7,31.9,29.78,ENE,69,2.0,13.0,93,0.04,,---,1.21,VWS V14.00,2013-04-12 03:37:00,
2013-04-11 23:42:00,33.6,31.8,29.79,ENE,76,8.0,13.0,93,0.05,,---,1.22,VWS V14.00,2013-04-12 03:42:00,
2013-04-11 23:47:00,33.6,31.8,29.79,NE,54,3.0,13.0,93,0.06,,---,1.23,VWS V14.00,2013-04-12 03:47:00,
2013-04-11 23:52:00,33.6,31.8,29.78,ENE,63,5.0,13.0,93,0.07,,---,1.24,VWS V14.00,2013-04-12 03:52:00,
2013-04-11 23:57:00,33.5,31.7,29.78,ENE,65,5.0,13.0,93,0.09,,---,1.26,VWS V14.00,2013-04-12 03:57:00,